EZY16YV EGAC-EGCC
Flight info
| Callsign | EZY16YV |
|---|---|
| Flight time | 0h 32m |
| Altitude | 25000 |
| Route | DUFFY L15 PEPOD Q38 MAKUX |
| Aircraft | A320/M-SDE3FGHIRWY/LB1 |
Departure
| Time | 2026-04-21 15:35 |
|---|---|
| Airport | George Best Belfast City Airport (EGAC) |
Arrival
| Time | 2026-04-21 16:08 |
|---|---|
| Airport | Manchester Airport (EGCC) |
| Time | Latitude | Longitude | Altitude | Speed | Heading |
|---|---|---|---|---|---|
| 2026-04-21 15:20 | 54.61441 | -5.87236 | 23 ft | 0 kts | 126° |
| 2026-04-21 15:29 | 54.61442 | -5.87239 | 21 ft | 2 kts | 126° |
| 2026-04-21 15:29 | 54.61460 | -5.87270 | 21 ft | 4 kts | 147° |
| 2026-04-21 15:30 | 54.61470 | -5.87281 | 21 ft | 0 kts | 145° |
| 2026-04-21 15:32 | 54.61454 | -5.87298 | 21 ft | 7 kts | 218° |
| 2026-04-21 15:32 | 54.61425 | -5.87352 | 21 ft | 6 kts | 227° |
| 2026-04-21 15:33 | 54.61376 | -5.87455 | 21 ft | 13 kts | 219° |
| 2026-04-21 15:33 | 54.61307 | -5.87537 | 21 ft | 12 kts | 215° |
| 2026-04-21 15:33 | 54.61223 | -5.87638 | 21 ft | 15 kts | 214° |
| 2026-04-21 15:33 | 54.61140 | -5.87737 | 21 ft | 14 kts | 214° |
| 2026-04-21 15:34 | 54.61083 | -5.87852 | 22 ft | 12 kts | 264° |
| 2026-04-21 15:34 | 54.61115 | -5.87980 | 21 ft | 11 kts | 304° |
| 2026-04-21 15:34 | 54.61173 | -5.88011 | 21 ft | 9 kts | 26° |
| 2026-04-21 15:34 | 54.61188 | -5.87995 | 24 ft | 0 kts | 34° |
| 2026-04-21 15:35 | 54.61195 | -5.87986 | 22 ft | 8 kts | 34° |
| 2026-04-21 15:35 | 54.61423 | -5.87713 | 18 ft | 79 kts | 35° |
| 2026-04-21 15:35 | 54.62056 | -5.86962 | 42 ft | 137 kts | 33° |
| 2026-04-21 15:35 | 54.62822 | -5.86076 | 759 ft | 131 kts | 43° |
| 2026-04-21 15:36 | 54.63576 | -5.85154 | 1395 ft | 140 kts | 43° |
| 2026-04-21 15:36 | 54.64340 | -5.83950 | 1756 ft | 155 kts | 68° |
| 2026-04-21 15:36 | 54.64379 | -5.82079 | 2146 ft | 172 kts | 114° |
| 2026-04-21 15:36 | 54.63434 | -5.80593 | 2540 ft | 207 kts | 155° |
| 2026-04-21 15:37 | 54.61885 | -5.80544 | 3001 ft | 247 kts | 192° |
| 2026-04-21 15:37 | 54.60244 | -5.81920 | 3618 ft | 271 kts | 204° |
| 2026-04-21 15:37 | 54.58593 | -5.83477 | 4702 ft | 270 kts | 202° |
| 2026-04-21 15:37 | 54.56867 | -5.84706 | 5662 ft | 268 kts | 190° |
| 2026-04-21 15:38 | 54.55056 | -5.85415 | 6678 ft | 266 kts | 184° |
| 2026-04-21 15:38 | 54.53225 | -5.85758 | 7632 ft | 263 kts | 172° |
| 2026-04-21 15:38 | 54.51442 | -5.85220 | 8546 ft | 260 kts | 159° |
| 2026-04-21 15:38 | 54.49786 | -5.83978 | 9461 ft | 260 kts | 146° |
| 2026-04-21 15:39 | 54.48295 | -5.82217 | 10366 ft | 262 kts | 142° |
| 2026-04-21 15:39 | 54.46763 | -5.80356 | 10848 ft | 280 kts | 143° |
| 2026-04-21 15:39 | 54.45100 | -5.78349 | 11131 ft | 304 kts | 143° |
| 2026-04-21 15:39 | 54.43315 | -5.76205 | 11545 ft | 320 kts | 143° |
| 2026-04-21 15:40 | 54.41464 | -5.73997 | 12205 ft | 327 kts | 143° |
| 2026-04-21 15:40 | 54.39578 | -5.71751 | 12915 ft | 333 kts | 144° |
| 2026-04-21 15:40 | 54.37663 | -5.69475 | 13640 ft | 337 kts | 144° |
| 2026-04-21 15:40 | 54.35725 | -5.67171 | 14407 ft | 340 kts | 144° |
| 2026-04-21 15:41 | 54.33766 | -5.64839 | 15049 ft | 345 kts | 144° |
| 2026-04-21 15:41 | 54.31785 | -5.62479 | 15708 ft | 349 kts | 144° |
| 2026-04-21 15:41 | 54.29785 | -5.60104 | 16366 ft | 352 kts | 144° |
| 2026-04-21 15:41 | 54.27810 | -5.57606 | 17037 ft | 354 kts | 138° |
| 2026-04-21 15:42 | 54.26127 | -5.54597 | 17683 ft | 357 kts | 128° |
| 2026-04-21 15:42 | 54.24642 | -5.51090 | 18289 ft | 362 kts | 126° |
| 2026-04-21 15:42 | 54.23190 | -5.47612 | 18808 ft | 367 kts | 126° |
| 2026-04-21 15:42 | 54.21691 | -5.44038 | 19292 ft | 372 kts | 126° |
| 2026-04-21 15:43 | 54.20163 | -5.40415 | 19686 ft | 380 kts | 127° |
| 2026-04-21 15:43 | 54.18602 | -5.36730 | 20102 ft | 386 kts | 126° |
| 2026-04-21 15:43 | 54.17012 | -5.32986 | 20516 ft | 393 kts | 127° |
| 2026-04-21 15:43 | 54.15394 | -5.29185 | 20930 ft | 399 kts | 126° |
| 2026-04-21 15:44 | 54.13757 | -5.25344 | 21424 ft | 402 kts | 126° |
| 2026-04-21 15:44 | 54.12095 | -5.21451 | 21757 ft | 411 kts | 126° |
| 2026-04-21 15:44 | 54.10402 | -5.17482 | 22113 ft | 418 kts | 126° |
| 2026-04-21 15:44 | 54.08679 | -5.13451 | 22513 ft | 423 kts | 126° |
| 2026-04-21 15:45 | 54.06939 | -5.09388 | 22966 ft | 427 kts | 126° |
| 2026-04-21 15:45 | 54.05174 | -5.05276 | 23371 ft | 432 kts | 126° |
| 2026-04-21 15:45 | 54.03391 | -5.01127 | 23762 ft | 437 kts | 127° |
| 2026-04-21 15:45 | 54.01582 | -4.96926 | 24122 ft | 442 kts | 127° |
| 2026-04-21 15:46 | 53.99754 | -4.92688 | 24462 ft | 447 kts | 127° |
| 2026-04-21 15:46 | 53.97911 | -4.88419 | 24816 ft | 450 kts | 127° |
| 2026-04-21 15:46 | 53.96050 | -4.84107 | 25163 ft | 454 kts | 127° |
| 2026-04-21 15:46 | 53.94176 | -4.79776 | 25340 ft | 457 kts | 127° |
| 2026-04-21 15:47 | 53.92311 | -4.75470 | 25381 ft | 461 kts | 127° |
| 2026-04-21 15:47 | 53.90407 | -4.71090 | 25388 ft | 461 kts | 127° |
| 2026-04-21 15:47 | 53.88495 | -4.66712 | 25396 ft | 463 kts | 127° |
| 2026-04-21 15:47 | 53.86572 | -4.62325 | 25396 ft | 464 kts | 127° |
| 2026-04-21 15:48 | 53.84645 | -4.57935 | 25385 ft | 464 kts | 127° |
| 2026-04-21 15:48 | 53.82720 | -4.53547 | 25382 ft | 464 kts | 127° |
| 2026-04-21 15:48 | 53.80796 | -4.49160 | 25378 ft | 464 kts | 127° |
| 2026-04-21 15:48 | 53.78871 | -4.44769 | 25374 ft | 465 kts | 127° |
| 2026-04-21 15:49 | 53.76945 | -4.40379 | 25369 ft | 464 kts | 127° |
| 2026-04-21 15:49 | 53.75017 | -4.36002 | 25299 ft | 464 kts | 127° |
| 2026-04-21 15:49 | 53.73097 | -4.31656 | 25055 ft | 460 kts | 127° |
| 2026-04-21 15:49 | 53.71182 | -4.27337 | 24815 ft | 458 kts | 127° |
| 2026-04-21 15:50 | 53.69285 | -4.23065 | 24332 ft | 453 kts | 127° |
| 2026-04-21 15:50 | 53.67396 | -4.18816 | 23605 ft | 452 kts | 127° |
| 2026-04-21 15:50 | 53.65516 | -4.14595 | 22943 ft | 447 kts | 127° |
| 2026-04-21 15:50 | 53.63730 | -4.10350 | 22346 ft | 441 kts | 120° |
| 2026-04-21 15:51 | 53.62371 | -4.05766 | 21784 ft | 434 kts | 111° |
| 2026-04-21 15:51 | 53.61231 | -4.01090 | 21242 ft | 429 kts | 111° |
| 2026-04-21 15:51 | 53.60102 | -3.96480 | 20711 ft | 423 kts | 112° |
| 2026-04-21 15:51 | 53.58983 | -3.91948 | 20189 ft | 417 kts | 112° |
| 2026-04-21 15:52 | 53.57875 | -3.87479 | 19676 ft | 411 kts | 112° |
| 2026-04-21 15:52 | 53.56780 | -3.83076 | 19165 ft | 405 kts | 112° |
| 2026-04-21 15:52 | 53.55696 | -3.78734 | 18622 ft | 400 kts | 113° |
| 2026-04-21 15:52 | 53.54626 | -3.74458 | 18056 ft | 394 kts | 113° |
| 2026-04-21 15:53 | 53.53572 | -3.70251 | 17530 ft | 387 kts | 113° |
| 2026-04-21 15:53 | 53.52535 | -3.66113 | 16949 ft | 382 kts | 113° |
| 2026-04-21 15:53 | 53.51507 | -3.62009 | 16306 ft | 380 kts | 113° |
| 2026-04-21 15:53 | 53.50491 | -3.57952 | 15775 ft | 374 kts | 113° |
| 2026-04-21 15:54 | 53.49482 | -3.53933 | 15170 ft | 371 kts | 113° |
| 2026-04-21 15:54 | 53.48488 | -3.49985 | 14690 ft | 365 kts | 113° |
| 2026-04-21 15:54 | 53.47502 | -3.46085 | 14174 ft | 360 kts | 113° |
| 2026-04-21 15:54 | 53.46536 | -3.42273 | 13157 ft | 352 kts | 112° |
| 2026-04-21 15:55 | 53.45611 | -3.38618 | 12599 ft | 340 kts | 113° |
| 2026-04-21 15:55 | 53.44686 | -3.34975 | 12043 ft | 338 kts | 113° |
| 2026-04-21 15:55 | 53.43756 | -3.31326 | 11646 ft | 330 kts | 112° |
| 2026-04-21 15:55 | 53.42887 | -3.27919 | 11512 ft | 315 kts | 112° |
| 2026-04-21 15:56 | 53.42042 | -3.24616 | 11391 ft | 302 kts | 113° |
| 2026-04-21 15:56 | 53.41231 | -3.21450 | 11254 ft | 290 kts | 113° |
| 2026-04-21 15:56 | 53.40452 | -3.18411 | 11136 ft | 279 kts | 112° |
| 2026-04-21 15:56 | 53.39701 | -3.15475 | 10931 ft | 271 kts | 112° |
| 2026-04-21 15:57 | 53.38965 | -3.12594 | 10674 ft | 266 kts | 112° |
| 2026-04-21 15:57 | 53.38252 | -3.09749 | 10430 ft | 265 kts | 112° |
| 2026-04-21 15:57 | 53.37550 | -3.06910 | 10052 ft | 264 kts | 111° |
| 2026-04-21 15:57 | 53.36851 | -3.04071 | 9642 ft | 263 kts | 111° |
| 2026-04-21 15:58 | 53.36156 | -3.01252 | 9266 ft | 261 kts | 111° |
| 2026-04-21 15:58 | 53.35461 | -2.98455 | 8864 ft | 259 kts | 112° |
| 2026-04-21 15:58 | 53.34768 | -2.95692 | 8524 ft | 256 kts | 112° |
| 2026-04-21 15:58 | 53.34076 | -2.92935 | 8073 ft | 256 kts | 112° |
| 2026-04-21 15:59 | 53.33391 | -2.90196 | 7648 ft | 256 kts | 112° |
| 2026-04-21 15:59 | 53.32707 | -2.87459 | 7302 ft | 252 kts | 112° |
| 2026-04-21 15:59 | 53.32035 | -2.84775 | 6932 ft | 250 kts | 112° |
| 2026-04-21 15:59 | 53.31365 | -2.82105 | 6537 ft | 248 kts | 112° |
| 2026-04-21 16:00 | 53.30699 | -2.79457 | 6082 ft | 247 kts | 112° |
| 2026-04-21 16:00 | 53.30036 | -2.76829 | 5689 ft | 244 kts | 111° |
| 2026-04-21 16:00 | 53.29380 | -2.74225 | 5303 ft | 241 kts | 111° |
| 2026-04-21 16:00 | 53.28736 | -2.71677 | 4649 ft | 237 kts | 111° |
| 2026-04-21 16:01 | 53.28096 | -2.69159 | 4298 ft | 231 kts | 111° |
| 2026-04-21 16:01 | 53.27486 | -2.66766 | 4214 ft | 217 kts | 110° |
| 2026-04-21 16:01 | 53.26907 | -2.64505 | 4125 ft | 206 kts | 110° |
| 2026-04-21 16:01 | 53.26359 | -2.62366 | 4046 ft | 195 kts | 110° |
| 2026-04-21 16:02 | 53.25831 | -2.60299 | 3959 ft | 193 kts | 110° |
| 2026-04-21 16:02 | 53.25315 | -2.58270 | 3878 ft | 192 kts | 110° |
| 2026-04-21 16:02 | 53.24797 | -2.56223 | 3792 ft | 191 kts | 110° |
| 2026-04-21 16:02 | 53.24307 | -2.54184 | 3708 ft | 181 kts | 102° |
| 2026-04-21 16:03 | 53.24181 | -2.52166 | 3633 ft | 172 kts | 84° |
| 2026-04-21 16:03 | 53.24463 | -2.50260 | 3492 ft | 169 kts | 67° |
| 2026-04-21 16:03 | 53.25108 | -2.48624 | 3308 ft | 169 kts | 55° |
| 2026-04-21 16:03 | 53.25831 | -2.47148 | 3085 ft | 163 kts | 56° |
| 2026-04-21 16:04 | 53.26541 | -2.45693 | 2862 ft | 161 kts | 56° |
| 2026-04-21 16:04 | 53.27247 | -2.44246 | 2639 ft | 157 kts | 56° |
| 2026-04-21 16:04 | 53.27918 | -2.42867 | 2430 ft | 153 kts | 56° |
| 2026-04-21 16:04 | 53.28577 | -2.41515 | 2217 ft | 146 kts | 56° |
| 2026-04-21 16:05 | 53.29198 | -2.40239 | 2023 ft | 137 kts | 56° |
| 2026-04-21 16:05 | 53.29788 | -2.39025 | 1848 ft | 131 kts | 56° |
| 2026-04-21 16:05 | 53.30343 | -2.37883 | 1683 ft | 124 kts | 56° |
| 2026-04-21 16:05 | 53.30868 | -2.36800 | 1497 ft | 116 kts | 56° |
| 2026-04-21 16:06 | 53.31367 | -2.35773 | 1346 ft | 113 kts | 57° |
| 2026-04-21 16:06 | 53.31856 | -2.34763 | 1184 ft | 111 kts | 57° |
| 2026-04-21 16:06 | 53.32356 | -2.33731 | 1026 ft | 116 kts | 56° |
| 2026-04-21 16:06 | 53.32874 | -2.32660 | 844 ft | 122 kts | 54° |
| 2026-04-21 16:07 | 53.33404 | -2.31569 | 691 ft | 120 kts | 52° |
| 2026-04-21 16:07 | 53.33932 | -2.30479 | 534 ft | 120 kts | 54° |
| 2026-04-21 16:07 | 53.34464 | -2.29387 | 362 ft | 121 kts | 54° |
| 2026-04-21 16:07 | 53.34989 | -2.28299 | 240 ft | 113 kts | 54° |
| 2026-04-21 16:08 | 53.35616 | -2.26994 | 265 ft | 38 kts | 51° |
| 2026-04-21 16:08 | 53.35737 | -2.26746 | 268 ft | 18 kts | 50° |
| 2026-04-21 16:08 | 53.35813 | -2.26679 | 266 ft | 14 kts | 355° |
| 2026-04-21 16:09 | 53.35882 | -2.26697 | 261 ft | 10 kts | 350° |
| 2026-04-21 16:09 | 53.35918 | -2.26757 | 255 ft | 4 kts | 278° |
| 2026-04-21 16:09 | 53.35908 | -2.26821 | 254 ft | 7 kts | 236° |
| 2026-04-21 16:09 | 53.35882 | -2.26880 | 253 ft | 6 kts | 231° |
| 2026-04-21 16:10 | 53.35852 | -2.26942 | 254 ft | 9 kts | 231° |
| 2026-04-21 16:10 | 53.35821 | -2.27028 | 253 ft | 9 kts | 242° |
| 2026-04-21 16:10 | 53.35786 | -2.27113 | 252 ft | 9 kts | 232° |
| 2026-04-21 16:10 | 53.35751 | -2.27187 | 252 ft | 7 kts | 231° |
| 2026-04-21 16:11 | 53.35702 | -2.27285 | 253 ft | 13 kts | 230° |
| 2026-04-21 16:11 | 53.35647 | -2.27398 | 253 ft | 12 kts | 231° |
| 2026-04-21 16:11 | 53.35615 | -2.27494 | 251 ft | 11 kts | 272° |
| 2026-04-21 16:11 | 53.35681 | -2.27604 | 247 ft | 13 kts | 327° |
| 2026-04-21 16:12 | 53.35733 | -2.27642 | 247 ft | 12 kts | 338° |
| 2026-04-21 16:12 | 53.35817 | -2.27740 | 247 ft | 13 kts | 312° |
| 2026-04-21 16:12 | 53.35880 | -2.27842 | 247 ft | 11 kts | 340° |
| 2026-04-21 16:12 | 53.35967 | -2.27868 | 247 ft | 16 kts | 329° |
| 2026-04-21 16:13 | 53.36051 | -2.28000 | 247 ft | 17 kts | 314° |
| 2026-04-21 16:13 | 53.36137 | -2.28144 | 247 ft | 18 kts | 315° |
| 2026-04-21 16:13 | 53.36228 | -2.28296 | 247 ft | 19 kts | 315° |
| 2026-04-21 16:13 | 53.36313 | -2.28439 | 247 ft | 14 kts | 314° |
| 2026-04-21 16:14 | 53.36370 | -2.28477 | 247 ft | 9 kts | 15° |
| 2026-04-21 16:14 | 53.36435 | -2.28512 | 247 ft | 14 kts | 315° |
| 2026-04-21 16:14 | 53.36521 | -2.28658 | 247 ft | 16 kts | 314° |
| 2026-04-21 16:14 | 53.36585 | -2.28793 | 247 ft | 14 kts | 296° |
| 2026-04-21 16:15 | 53.36645 | -2.28916 | 247 ft | 13 kts | 315° |
| 2026-04-21 16:15 | 53.36707 | -2.29020 | 247 ft | 12 kts | 314° |
| 2026-04-21 16:15 | 53.36774 | -2.29067 | 247 ft | 11 kts | 14° |
| 2026-04-21 16:15 | 53.36852 | -2.29010 | 247 ft | 14 kts | 39° |
| 2026-04-21 16:16 | 53.36923 | -2.28892 | 247 ft | 10 kts | 45° |
| 2026-04-21 16:16 | 53.36975 | -2.28807 | 247 ft | 6 kts | 44° |
| 2026-04-21 16:16 | 53.36972 | -2.28739 | 247 ft | 8 kts | 130° |
| 2026-04-21 16:16 | 53.36950 | -2.28700 | 247 ft | 1 kts | 134° |
| 2026-04-21 16:17 | 53.36948 | -2.28697 | 247 ft | 1 kts | 134° |
| 2026-04-21 16:17 | 53.36948 | -2.28696 | 247 ft | 0 kts | 134° |
| 2026-04-21 16:17 | 53.36947 | -2.28695 | 247 ft | 0 kts | 134° |
| 2026-04-21 16:18 | 53.36947 | -2.28694 | 247 ft | 0 kts | 134° |
| 2026-04-21 16:18 | 53.36946 | -2.28692 | 247 ft | 0 kts | 134° |
| 2026-04-21 16:18 | 53.36944 | -2.28691 | 247 ft | 0 kts | 134° |
| 2026-04-21 16:19 | 53.36944 | -2.28690 | 247 ft | 0 kts | 134° |
| 2026-04-21 16:19 | 53.36948 | -2.28696 | 247 ft | 0 kts | 135° |